CheckWX is a tool to help pilots better visualize weather data.  It is not intended as a substitute for an official pre-flight weather briefing.

18:39:51 UTC

NSTU METAR
Pago Pago International Airport
Pago Pago, American Samoa
Current

50 mins ago

NSTU 251750Z VRB03KT 10SM VCSH FEW007 BKN015TCU BKN040 OVC100 26/24 A2989 RMK VCSH SE TCU ALQDS SLP124 60000 8/87/ T02560241 10265 20251 52014
Observed
Aug-25 @ 17:50 UTC
Wind
  • Variable at 3 KTS
Visibility
16,100 meters
Flight Rules
MVFR
Cloud Levels
  • Few at 700' AGL
  • Broken at 1,500' AGL
  • Broken at 4,000' AGL
  • Overcast at 10,000' AGL
Temperature
26°C / 79°F
Dewpoint
24°C / 75°F
Humidity
89%
Altimeter
29.89" Hg
Pressure
1012.22 hPa
Previous

2 hours ago

NSTU 251650Z VRB03KT 10SM SCT016 BKN040 BKN100 25/24 A2987 RMK SLP117 T02510238
Observed
Aug-25 @ 16:50 UTC
Wind
  • Variable at 3 KTS
Visibility
16,100 meters
Flight Rules
VFR
Cloud Levels
  • Scattered at 1,600' AGL
  • Broken at 4,000' AGL
  • Broken at 10,000' AGL
Temperature
25°C / 77°F
Dewpoint
24°C / 75°F
Humidity
94%
Altimeter
29.87" Hg
Pressure
1011.52 hPa
Previous

3 hours ago

NSTU 251550Z VRB03KT 10SM SCT018 BKN040 25/24 A2986 RMK SHRAE20 SLP112 T02520238
Observed
Aug-25 @ 15:50 UTC
Wind
  • Variable at 3 KTS
Visibility
16,100 meters
Flight Rules
VFR
Cloud Levels
  • Scattered at 1,800' AGL
  • Broken at 4,000' AGL
Temperature
25°C / 77°F
Dewpoint
24°C / 75°F
Humidity
94%
Altimeter
29.86" Hg
Pressure
1011.22 hPa